createdAt,value
2023-02-11T00:01:28.971Z,101303.25
2023-02-11T00:03:31.662Z,101270.41
2023-02-11T00:05:34.867Z,101267.84
2023-02-11T00:07:37.848Z,101298.19
2023-02-11T00:09:40.599Z,101244.28
2023-02-11T00:11:43.108Z,101326.84
2023-02-11T00:13:46.479Z,101268.72
2023-02-11T00:15:49.607Z,101311.72
2023-02-11T00:17:52.297Z,101278.00
2023-02-11T00:19:55.105Z,101304.13
2023-02-11T00:21:57.635Z,101214.81
2023-02-11T00:24:02.807Z,101230.81
2023-02-11T00:26:12.721Z,101286.44
2023-02-11T00:28:15.902Z,101194.63
2023-02-11T00:30:18.198Z,101239.28
2023-02-11T00:32:20.647Z,101237.59
2023-02-11T00:34:23.757Z,101236.72
2023-02-11T00:36:28.531Z,101253.59
2023-02-11T00:38:30.866Z,101193.75
2023-02-11T00:40:33.297Z,101173.56
2023-02-11T00:42:39.062Z,101257.75
2023-02-11T00:44:41.885Z,101222.41
2023-02-11T00:46:45.084Z,101245.97
2023-02-11T00:48:47.826Z,101243.47
2023-02-11T00:50:50.871Z,101196.25
2023-02-11T00:52:53.378Z,101147.38
2023-02-11T00:54:56.047Z,101170.13
2023-02-11T00:56:58.657Z,101224.84
2023-02-11T00:59:00.865Z,101198.72
2023-02-11T01:01:03.414Z,101224.00
2023-02-11T01:03:05.848Z,101205.47
2023-02-11T01:05:08.688Z,101207.16
2023-02-11T01:07:11.220Z,101106.13
2023-02-11T01:09:13.745Z,101135.63
2023-02-11T01:11:19.718Z,101171.81
2023-02-11T01:13:23.241Z,101171.81
2023-02-11T01:15:25.986Z,101109.53
2023-02-11T01:17:28.387Z,101195.38
2023-02-11T01:19:30.609Z,101133.06
2023-02-11T01:21:33.041Z,101197.88
2023-02-11T01:23:35.363Z,101178.50
2023-02-11T01:25:37.804Z,101130.50
2023-02-11T01:27:40.235Z,101127.94
2023-02-11T01:29:42.673Z,101130.44
2023-02-11T01:31:45.442Z,101128.75
2023-02-11T01:33:49.471Z,101148.94
2023-02-11T01:35:52.871Z,101101.81
2023-02-11T01:37:55.510Z,101135.41
2023-02-11T01:39:57.804Z,101096.75
2023-02-11T01:42:01.705Z,101084.91
2023-02-11T01:44:23.573Z,101172.38
2023-02-11T01:46:36.886Z,101158.03
2023-02-11T01:48:44.058Z,101137.84
2023-02-11T01:50:49.728Z,101108.41
2023-02-11T01:52:52.136Z,101147.94
2023-02-11T01:55:18.094Z,101124.31
2023-02-11T01:57:25.412Z,101110.84
2023-02-11T01:59:30.823Z,101152.03
2023-02-11T02:01:33.858Z,101141.94
2023-02-11T02:03:42.954Z,101090.63
2023-02-11T02:06:06.656Z,101055.28
2023-02-11T02:08:17.718Z,101093.09
2023-02-11T02:10:25.854Z,101083.88
2023-02-11T02:12:28.305Z,101125.06
2023-02-11T02:14:30.902Z,101097.22
2023-02-11T02:16:37.460Z,101050.97
2023-02-11T02:19:25.359Z,101118.22
2023-02-11T02:21:55.501Z,101110.56
2023-02-11T02:24:22.377Z,101106.31
2023-02-11T02:26:54.237Z,101097.88
2023-02-11T02:29:13.662Z,101028.19
2023-02-11T02:31:24.824Z,101115.63
2023-02-11T02:33:34.172Z,101115.56
2023-02-11T02:35:48.964Z,101109.63
2023-02-11T02:38:10.884Z,101058.31
2023-02-11T02:40:20.414Z,101058.28
2023-02-11T02:42:23.929Z,100992.75
2023-02-11T02:44:26.522Z,100986.00
2023-02-11T02:46:32.957Z,101038.03
2023-02-11T02:48:36.441Z,101028.00
2023-02-11T02:50:38.848Z,101019.53
2023-02-11T02:52:56.061Z,101088.38
2023-02-11T02:55:07.428Z,101024.53
2023-02-11T02:57:27.913Z,101080.00
2023-02-11T03:00:00.989Z,101059.88
2023-02-11T03:02:14.548Z,101046.41
2023-02-11T03:04:34.106Z,101090.09
2023-02-11T03:07:00.816Z,101041.22
2023-02-11T03:09:15.128Z,101062.97
2023-02-11T03:11:20.049Z,100987.41
2023-02-11T03:13:27.933Z,101012.50
2023-02-11T03:15:35.650Z,100970.53
2023-02-11T03:17:41.849Z,100934.41
2023-02-11T03:19:47.449Z,101009.88
2023-02-11T03:21:52.327Z,100977.03
2023-02-11T03:23:56.890Z,100957.72
2023-02-11T03:26:10.048Z,100975.28
2023-02-11T03:28:15.311Z,101029.88
2023-02-11T03:30:26.297Z,100913.16
2023-02-11T03:32:31.785Z,100902.97
2023-02-11T03:34:34.103Z,100945.63
2023-02-11T03:36:47.798Z,100975.84
2023-02-11T03:38:56.858Z,100940.50
2023-02-11T03:41:02.437Z,100933.06
2023-02-11T03:43:18.270Z,100909.50
2023-02-11T03:45:23.343Z,100918.69
2023-02-11T03:47:29.849Z,100949.72
2023-02-11T03:49:33.638Z,100984.06
2023-02-11T03:51:37.191Z,100923.59
2023-02-11T03:53:43.573Z,100952.81
2023-02-11T03:55:49.667Z,100956.13
2023-02-11T03:57:53.033Z,100943.50
2023-02-11T03:59:59.694Z,100932.59
2023-02-11T04:02:02.361Z,100885.53
2023-02-11T04:04:04.814Z,100934.16
2023-02-11T04:06:08.359Z,100877.88
2023-02-11T04:08:10.828Z,100944.09
2023-02-11T04:10:13.266Z,100941.53
2023-02-11T04:12:15.803Z,100928.19
2023-02-11T04:14:18.128Z,100903.84
2023-02-11T04:16:21.216Z,100892.03
2023-02-11T04:18:23.484Z,100903.75
2023-02-11T04:20:25.805Z,100883.69
2023-02-11T04:22:28.115Z,100961.81
2023-02-11T04:24:30.563Z,100869.47
2023-02-11T04:26:33.784Z,100903.69
2023-02-11T04:28:36.879Z,100817.41
2023-02-11T04:30:39.237Z,100834.19
2023-02-11T04:32:42.131Z,100911.25
2023-02-11T04:34:44.414Z,100851.63
2023-02-11T04:36:48.225Z,100888.38
2023-02-11T04:38:50.504Z,100911.84
2023-02-11T04:40:52.905Z,100862.28
2023-02-11T04:42:55.245Z,100879.00
2023-02-11T04:44:57.472Z,100865.69
2023-02-11T04:46:59.723Z,100874.91
2023-02-11T04:49:01.922Z,100900.84
2023-02-11T04:51:04.295Z,100837.88
2023-02-11T04:53:07.284Z,100948.59
2023-02-11T04:55:09.812Z,100857.16
2023-02-11T04:57:12.066Z,100925.09
2023-02-11T04:59:14.454Z,100912.63
2023-02-11T05:01:17.296Z,100929.50
2023-02-11T05:03:19.628Z,100853.25
2023-02-11T05:05:22.189Z,100895.88
2023-02-11T05:07:24.709Z,100917.72
2023-02-11T05:09:26.939Z,100895.00
2023-02-11T05:11:29.242Z,100881.63
2023-02-11T05:13:31.735Z,100872.50
2023-02-11T05:15:33.945Z,100883.44
2023-02-11T05:17:36.986Z,100885.03
2023-02-11T05:19:39.471Z,100902.66
2023-02-11T05:21:56.591Z,100854.94
2023-02-11T05:24:02.929Z,100916.09
2023-02-11T05:26:05.750Z,100947.91
2023-02-11T05:28:08.103Z,100923.72
2023-02-11T05:30:11.476Z,100917.00
2023-02-11T05:32:13.778Z,100865.88
2023-02-11T05:34:16.287Z,100928.84
2023-02-11T05:36:18.882Z,100876.03
2023-02-11T05:38:21.470Z,100922.19
2023-02-11T05:40:24.643Z,100879.56
2023-02-11T05:42:27.313Z,100893.75
2023-02-11T05:44:29.740Z,100885.31
2023-02-11T05:46:32.204Z,100924.75
2023-02-11T05:48:35.032Z,100820.72
2023-02-11T05:50:37.562Z,100874.38
2023-02-11T05:52:40.015Z,100879.28
2023-02-11T05:54:42.555Z,100879.25
2023-02-11T05:56:45.152Z,100872.50
2023-02-11T05:58:47.694Z,100896.63
2023-02-11T06:00:49.877Z,100911.56
2023-02-11T06:02:52.444Z,100869.53
2023-02-11T06:04:54.672Z,100864.47
2023-02-11T06:06:57.203Z,100906.38
2023-02-11T06:08:59.587Z,100796.50
2023-02-11T06:11:02.229Z,100810.66
2023-02-11T06:13:04.894Z,100811.59
2023-02-11T06:15:07.963Z,100808.09
2023-02-11T06:17:10.154Z,100860.94
2023-02-11T06:19:13.348Z,100889.59
2023-02-11T06:21:15.879Z,100876.09
2023-02-11T06:23:18.767Z,100829.22
2023-02-11T06:25:21.199Z,100836.63
2023-02-11T06:27:23.861Z,100842.38
2023-02-11T06:29:26.472Z,100850.78
2023-02-11T06:31:29.349Z,100850.63
2023-02-11T06:33:33.188Z,100884.28
2023-02-11T06:35:38.213Z,100869.22
2023-02-11T06:37:41.425Z,100861.63
2023-02-11T06:39:45.455Z,100880.97
2023-02-11T06:41:47.819Z,100864.22
2023-02-11T06:43:50.707Z,100880.97
2023-02-11T06:45:56.466Z,100886.00
2023-02-11T06:47:58.904Z,100864.09
2023-02-11T06:50:01.099Z,100831.25
2023-02-11T06:52:03.925Z,100840.63
2023-02-11T06:54:07.094Z,100855.84
2023-02-11T06:56:13.454Z,100870.25
2023-02-11T06:58:16.110Z,100890.41
2023-02-11T07:00:18.683Z,100850.94
2023-02-11T07:02:21.352Z,100879.34
2023-02-11T07:04:23.824Z,100839.88
2023-02-11T07:06:28.266Z,100818.69
2023-02-11T07:08:30.830Z,100846.28
2023-02-11T07:10:34.394Z,100881.34
2023-02-11T07:12:37.038Z,100857.00
2023-02-11T07:14:40.041Z,100836.09
2023-02-11T07:16:42.386Z,100802.53
2023-02-11T07:18:45.845Z,100860.34
2023-02-11T07:20:48.637Z,100873.66
2023-02-11T07:22:51.210Z,100832.41
2023-02-11T07:24:53.585Z,100804.63
2023-02-11T07:26:56.257Z,100752.56
2023-02-11T07:28:58.779Z,100795.00
2023-02-11T07:31:07.890Z,100793.16
2023-02-11T07:33:10.891Z,100802.19
2023-02-11T07:35:13.565Z,100777.69
2023-02-11T07:37:15.888Z,100826.06
2023-02-11T07:39:18.495Z,100826.69
2023-02-11T07:41:23.299Z,100801.06
2023-02-11T07:43:25.902Z,100783.16
2023-02-11T07:45:28.110Z,100808.94
2023-02-11T07:47:30.853Z,100796.22
2023-02-11T07:49:33.271Z,100820.50
2023-02-11T07:51:35.560Z,100778.41
2023-02-11T07:53:39.023Z,100818.28
2023-02-11T07:55:42.800Z,100773.03
2023-02-11T07:57:45.638Z,100786.19
2023-02-11T07:59:48.031Z,100807.72
2023-02-11T08:01:51.770Z,100759.78
2023-02-11T08:03:58.917Z,100788.84
2023-02-11T08:06:12.243Z,100821.25
2023-02-11T08:08:14.439Z,100862.22
2023-02-11T08:10:16.854Z,100769.22
2023-02-11T08:12:19.340Z,100861.88
2023-02-11T08:14:21.554Z,100816.69
2023-02-11T08:16:27.779Z,100756.19
2023-02-11T08:18:31.278Z,100838.84
2023-02-11T08:20:34.107Z,100777.69
2023-02-11T08:22:36.316Z,100876.22
2023-02-11T08:24:38.826Z,100832.53
2023-02-11T08:26:41.334Z,100802.94
2023-02-11T08:28:45.951Z,100862.25
2023-02-11T08:30:49.214Z,100775.16
2023-02-11T08:32:52.696Z,100840.41
2023-02-11T08:34:55.182Z,100807.59
2023-02-11T08:36:58.247Z,100820.69
2023-02-11T08:39:20.648Z,100809.63
2023-02-11T08:41:23.275Z,100765.94
2023-02-11T08:43:25.937Z,100803.31
2023-02-11T08:45:28.919Z,100778.22
2023-02-11T08:47:32.199Z,100844.09
2023-02-11T08:49:34.895Z,100818.16
2023-02-11T08:51:37.283Z,100827.25
2023-02-11T08:53:40.117Z,100818.78
2023-02-11T08:55:49.356Z,100784.38
2023-02-11T08:57:51.921Z,100812.03
2023-02-11T08:59:54.191Z,100849.59
2023-02-11T09:01:56.779Z,100801.09
2023-02-11T09:03:59.953Z,100845.56
2023-02-11T09:06:05.968Z,100862.84
2023-02-11T09:08:08.324Z,100839.47
2023-02-11T09:10:11.769Z,100868.44
2023-02-11T09:12:14.408Z,100834.97
2023-02-11T09:14:22.088Z,100888.34
2023-02-11T09:16:28.712Z,100836.63
2023-02-11T09:18:31.757Z,100840.66
2023-02-11T09:20:34.704Z,100868.16
2023-02-11T09:22:37.090Z,100802.03
2023-02-11T09:24:39.532Z,100827.59
2023-02-11T09:26:43.743Z,100860.13
2023-02-11T09:28:47.076Z,100837.38
2023-02-11T09:30:50.073Z,100860.66
2023-02-11T09:32:52.648Z,100832.38
2023-02-11T09:34:55.024Z,100841.50
2023-02-11T09:36:57.830Z,100889.94
2023-02-11T09:39:02.502Z,100883.13
2023-02-11T09:41:08.030Z,100849.50
2023-02-11T09:43:33.974Z,100881.03
2023-02-11T09:45:36.498Z,100775.47
2023-02-11T09:48:04.419Z,100829.88
2023-02-11T09:50:36.224Z,100852.22
2023-02-11T09:53:05.465Z,100849.47
2023-02-11T09:55:25.345Z,100824.44
2023-02-11T09:57:36.608Z,100848.38
2023-02-11T09:59:40.637Z,100784.78
2023-02-11T10:01:51.302Z,100794.59
2023-02-11T10:04:31.161Z,100838.72
2023-02-11T10:06:52.693Z,100793.19
2023-02-11T10:09:16.704Z,100827.84
2023-02-11T10:11:32.108Z,100813.81
2023-02-11T10:13:52.972Z,100799.72
2023-02-11T10:16:22.546Z,100792.81
2023-02-11T10:18:46.083Z,100773.06
2023-02-11T10:21:20.987Z,100761.88
2023-02-11T10:23:27.184Z,100707.41
2023-02-11T10:25:45.232Z,100688.41
2023-02-11T10:27:49.134Z,100720.31
2023-02-11T10:30:02.999Z,100695.81
2023-02-11T10:32:25.371Z,100638.91
2023-02-11T10:34:27.623Z,100647.81
2023-02-11T10:36:34.260Z,100642.53
2023-02-11T10:38:37.250Z,100718.53
2023-02-11T10:40:39.707Z,100678.03
2023-02-11T10:42:47.409Z,100711.69
2023-02-11T10:45:01.339Z,100681.19
2023-02-11T10:47:12.508Z,100655.00
2023-02-11T10:49:40.036Z,100707.25
2023-02-11T10:51:42.583Z,100701.22
2023-02-11T10:53:46.677Z,100663.56
2023-02-11T10:55:54.874Z,100700.69
2023-02-11T10:58:01.387Z,100675.56
2023-02-11T11:00:18.922Z,100678.38
2023-02-11T11:02:34.631Z,100663.25
2023-02-11T11:04:42.986Z,100660.41
2023-02-11T11:06:45.372Z,100642.47
2023-02-11T11:08:50.653Z,100671.28
2023-02-11T11:11:14.584Z,100652.06
2023-02-11T11:13:32.756Z,100668.84
2023-02-11T11:15:34.914Z,100644.84
2023-02-11T11:17:38.656Z,100641.16
2023-02-11T11:19:41.063Z,100662.31
2023-02-11T11:21:52.429Z,100657.47
2023-02-11T11:24:04.338Z,100691.38
2023-02-11T11:26:13.056Z,100656.28
2023-02-11T11:28:25.631Z,100637.91
2023-02-11T11:30:35.181Z,100655.50
2023-02-11T11:32:38.174Z,100606.44
2023-02-11T11:34:49.799Z,100662.38
2023-02-11T11:36:56.646Z,100655.44
2023-02-11T11:39:03.669Z,100627.91
2023-02-11T11:41:17.808Z,100686.19
2023-02-11T11:43:23.350Z,100664.78
2023-02-11T11:45:27.451Z,100673.38
2023-02-11T11:47:41.252Z,100694.47
2023-02-11T11:49:52.973Z,100614.63
2023-02-11T11:52:27.243Z,100666.88
2023-02-11T11:54:31.669Z,100682.69
2023-02-11T11:56:38.414Z,100676.19
2023-02-11T11:58:41.133Z,100688.75
2023-02-11T12:00:56.251Z,100708.69
2023-02-11T12:03:26.180Z,100660.06
2023-02-11T12:05:38.624Z,100655.28
2023-02-11T12:07:56.243Z,100712.50
2023-02-11T12:10:36.113Z,100704.28
2023-02-11T12:12:41.679Z,100698.50
2023-02-11T12:15:08.011Z,100699.97
2023-02-11T12:17:20.130Z,100692.34
2023-02-11T12:19:57.727Z,100689.84
2023-02-11T12:22:19.498Z,100684.56
2023-02-11T12:24:24.988Z,100684.50
2023-02-11T12:26:38.811Z,100674.28
2023-02-11T12:29:20.677Z,100655.13
2023-02-11T12:31:33.747Z,100644.03
2023-02-11T12:33:54.741Z,100672.16
2023-02-11T12:36:06.250Z,100619.75
2023-02-11T12:38:19.220Z,100684.94
2023-02-11T12:40:35.156Z,100661.47
2023-02-11T12:43:15.413Z,100637.47
2023-02-11T12:46:05.214Z,100665.50
2023-02-11T12:48:38.324Z,100667.84
2023-02-11T12:51:04.125Z,100647.59
2023-02-11T12:53:28.293Z,100646.72
2023-02-11T12:55:40.248Z,100558.41
2023-02-11T12:57:46.792Z,100589.38
2023-02-11T12:59:59.746Z,100626.91
2023-02-11T13:02:12.789Z,100603.81
2023-02-11T13:04:35.364Z,100632.78
2023-02-11T13:06:42.587Z,100591.19
2023-02-11T13:08:49.256Z,100566.38
2023-02-11T13:10:55.822Z,100558.75
2023-02-11T13:13:17.318Z,100603.13
2023-02-11T13:15:20.383Z,100582.88
2023-02-11T13:17:57.952Z,100567.22
2023-02-11T13:20:15.288Z,100582.19
2023-02-11T13:22:27.594Z,100583.91
2023-02-11T13:24:53.568Z,100623.00
2023-02-11T13:27:01.993Z,100612.53
2023-02-11T13:29:19.766Z,100543.25
2023-02-11T13:31:27.026Z,100562.84
2023-02-11T13:33:37.988Z,100517.53
2023-02-11T13:35:45.512Z,100513.56
2023-02-11T13:37:48.393Z,100542.13
2023-02-11T13:40:27.339Z,100584.38
2023-02-11T13:42:31.549Z,100596.41
2023-02-11T13:44:35.210Z,100555.28
2023-02-11T13:47:00.016Z,100595.34
2023-02-11T13:49:02.571Z,100580.66
2023-02-11T13:51:11.014Z,100567.22
2023-02-11T13:53:15.987Z,100567.97
2023-02-11T13:55:24.543Z,100500.72
2023-02-11T13:57:36.183Z,100554.47
2023-02-11T13:59:38.829Z,100592.03
2023-02-11T14:02:19.807Z,100577.19
2023-02-11T14:04:44.139Z,100558.09
2023-02-11T14:07:46.458Z,100604.84
2023-02-11T14:09:53.770Z,100556.84
2023-02-11T14:12:33.996Z,100599.38
2023-02-11T14:15:03.285Z,100508.19
2023-02-11T14:17:09.507Z,100598.00
2023-02-11T14:19:11.796Z,100547.47
2023-02-11T14:21:30.877Z,100601.31
2023-02-11T14:23:33.389Z,100596.47
2023-02-11T14:25:39.237Z,100594.28
2023-02-11T14:27:44.432Z,100569.44
2023-02-11T14:30:01.963Z,100617.75
2023-02-11T14:32:10.154Z,100580.22
2023-02-11T14:34:40.772Z,100587.59
2023-02-11T14:37:09.548Z,100602.19
2023-02-11T14:39:40.713Z,100608.84
2023-02-11T14:41:46.649Z,100584.31
2023-02-11T14:44:15.222Z,100590.22
2023-02-11T14:46:20.203Z,100577.97
2023-02-11T14:48:31.427Z,100579.69
2023-02-11T14:50:51.517Z,100579.13
2023-02-11T14:52:55.464Z,100557.63
2023-02-11T14:55:20.912Z,100586.31
2023-02-11T14:57:23.947Z,100563.16
2023-02-11T14:59:26.798Z,100583.13
2023-02-11T15:01:34.630Z,100620.28
2023-02-11T15:03:40.234Z,100579.22
2023-02-11T15:05:43.491Z,100605.78
2023-02-11T15:07:52.441Z,100604.75
2023-02-11T15:09:54.898Z,100636.91
2023-02-11T15:11:58.891Z,100571.09
2023-02-11T15:14:11.440Z,100596.88
2023-02-11T15:16:18.835Z,100650.38
2023-02-11T15:18:25.208Z,100616.13
2023-02-11T15:20:32.410Z,100618.75
2023-02-11T15:22:37.278Z,100654.03
2023-02-11T15:24:41.269Z,100596.28
2023-02-11T15:26:43.909Z,100591.59
2023-02-11T15:28:52.905Z,100625.81
2023-02-11T15:31:04.661Z,100597.47
2023-02-11T15:33:21.417Z,100628.25
2023-02-11T15:35:24.870Z,100644.31
2023-02-11T15:37:33.117Z,100609.44
2023-02-11T15:39:44.107Z,100601.84
2023-02-11T15:41:46.519Z,100648.41
2023-02-11T15:43:54.759Z,100685.19
2023-02-11T15:46:02.468Z,100640.72
2023-02-11T15:48:19.123Z,100682.53
2023-02-11T15:50:25.186Z,100608.69
2023-02-11T15:52:28.891Z,100665.28
2023-02-11T15:54:34.897Z,100654.44
2023-02-11T15:56:43.662Z,100693.13
2023-02-11T15:58:49.770Z,100651.72
2023-02-11T16:01:00.118Z,100621.59
2023-02-11T16:03:03.445Z,100637.69
2023-02-11T16:05:09.388Z,100618.94
2023-02-11T16:07:43.532Z,100703.94
2023-02-11T16:09:46.343Z,100659.78
2023-02-11T16:11:48.609Z,100708.41
2023-02-11T16:13:51.014Z,100710.47
2023-02-11T16:16:02.693Z,100660.38
2023-02-11T16:18:16.155Z,100673.84
2023-02-11T16:20:21.658Z,100698.22
2023-02-11T16:22:35.786Z,100674.97
2023-02-11T16:24:39.744Z,100668.38
2023-02-11T16:26:46.866Z,100670.94
2023-02-11T16:28:49.684Z,100625.31
2023-02-11T16:30:55.881Z,100680.34
2023-02-11T16:32:58.315Z,100677.00
2023-02-11T16:35:02.526Z,100693.41
2023-02-11T16:37:06.186Z,100634.41
2023-02-11T16:39:09.507Z,100669.97
2023-02-11T16:41:13.054Z,100666.00
2023-02-11T16:43:20.071Z,100690.06
2023-02-11T16:45:22.497Z,100671.59
2023-02-11T16:47:27.929Z,100691.81
2023-02-11T16:49:40.887Z,100643.63
2023-02-11T16:51:44.817Z,100694.44
2023-02-11T16:53:47.193Z,100675.41
2023-02-11T16:55:50.130Z,100662.00
2023-02-11T16:57:52.993Z,100700.47
2023-02-11T16:59:55.357Z,100664.41
2023-02-11T17:01:58.467Z,100646.91
2023-02-11T17:04:01.389Z,100702.78
2023-02-11T17:06:06.216Z,100663.56
2023-02-11T17:08:09.947Z,100681.91
2023-02-11T17:10:21.686Z,100677.59
2023-02-11T17:12:28.182Z,100716.97
2023-02-11T17:14:30.634Z,100693.41
2023-02-11T17:16:33.363Z,100689.31
2023-02-11T17:18:37.678Z,100701.09
2023-02-11T17:20:40.827Z,100676.88
2023-02-11T17:22:43.957Z,100657.22
2023-02-11T17:24:46.509Z,100707.81
2023-02-11T17:26:50.156Z,100720.38
2023-02-11T17:28:53.712Z,100641.00
2023-02-11T17:30:56.278Z,100657.91
2023-02-11T17:32:58.887Z,100660.47
2023-02-11T17:35:01.690Z,100719.75
2023-02-11T17:37:09.421Z,100708.00
2023-02-11T17:39:12.206Z,100719.03
2023-02-11T17:41:14.919Z,100666.34
2023-02-11T17:43:17.197Z,100682.38
2023-02-11T17:45:22.172Z,100670.00
2023-02-11T17:47:25.681Z,100728.38
2023-02-11T17:49:28.472Z,100694.94
2023-02-11T17:51:36.817Z,100677.38
2023-02-11T17:53:39.387Z,100700.16
2023-02-11T17:55:42.201Z,100737.72
2023-02-11T17:57:44.670Z,100746.91
2023-02-11T17:59:47.461Z,100653.59
2023-02-11T18:01:49.937Z,100675.19
2023-02-11T18:03:52.774Z,100711.09
2023-02-11T18:06:00.877Z,100686.06
2023-02-11T18:08:06.595Z,100731.06
2023-02-11T18:10:10.033Z,100722.97
2023-02-11T18:12:12.707Z,100727.25
2023-02-11T18:14:15.037Z,100725.47
2023-02-11T18:16:17.949Z,100678.00
2023-02-11T18:18:20.390Z,100668.00
2023-02-11T18:20:22.747Z,100745.53
2023-02-11T18:22:26.294Z,100726.31
2023-02-11T18:24:28.503Z,100682.34
2023-02-11T18:26:31.280Z,100748.97
2023-02-11T18:28:34.491Z,100764.84
2023-02-11T18:30:36.919Z,100721.56
2023-02-11T18:32:39.330Z,100737.81
2023-02-11T18:34:42.268Z,100760.97
2023-02-11T18:36:48.893Z,100738.47
2023-02-11T18:38:53.005Z,100748.47
2023-02-11T18:40:58.791Z,100760.00
2023-02-11T18:43:01.511Z,100747.56
2023-02-11T18:45:05.792Z,100723.47
2023-02-11T18:47:08.378Z,100712.69
2023-02-11T18:49:13.551Z,100740.38
2023-02-11T18:51:20.817Z,100733.69
2023-02-11T18:53:23.166Z,100781.41
2023-02-11T18:55:26.489Z,100728.81
2023-02-11T18:57:29.244Z,100739.75
2023-02-11T18:59:31.715Z,100730.50
2023-02-11T19:01:34.710Z,100757.44
2023-02-11T19:03:38.432Z,100735.03
2023-02-11T19:05:49.608Z,100716.56
2023-02-11T19:07:52.149Z,100770.03
2023-02-11T19:09:54.768Z,100781.47
2023-02-11T19:11:58.635Z,100765.75
2023-02-11T19:14:02.757Z,100754.25
2023-02-11T19:16:11.507Z,100733.47
2023-02-11T19:18:16.319Z,100723.53
2023-02-11T19:20:19.618Z,100762.81
2023-02-11T19:22:22.327Z,100747.66
2023-02-11T19:24:26.650Z,100734.38
2023-02-11T19:26:30.348Z,100780.50
2023-02-11T19:28:34.720Z,100803.84
2023-02-11T19:30:37.546Z,100756.34
2023-02-11T19:32:40.054Z,100751.44
2023-02-11T19:34:42.725Z,100798.97
2023-02-11T19:36:45.311Z,100769.63
2023-02-11T19:38:47.954Z,100763.59
2023-02-11T19:40:56.918Z,100771.22
2023-02-11T19:42:59.547Z,100772.88
2023-02-11T19:45:02.723Z,100794.50
2023-02-11T19:47:07.221Z,100774.44
2023-02-11T19:49:14.708Z,100817.09
2023-02-11T19:51:18.617Z,100730.53
2023-02-11T19:53:22.065Z,100721.34
2023-02-11T19:55:24.688Z,100777.06
2023-02-11T19:57:27.261Z,100765.97
2023-02-11T19:59:29.704Z,100748.75
2023-02-11T20:01:32.176Z,100794.44
2023-02-11T20:03:35.701Z,100789.69
2023-02-11T20:05:40.484Z,100808.66
2023-02-11T20:07:42.815Z,100798.56
2023-02-11T20:09:45.607Z,100767.00
2023-02-11T20:11:48.022Z,100776.94
2023-02-11T20:13:50.486Z,100823.63
2023-02-11T20:15:53.335Z,100730.91
2023-02-11T20:17:56.331Z,100807.66
2023-02-11T20:19:58.963Z,100807.66
2023-02-11T20:22:01.816Z,100783.44
2023-02-11T20:24:04.680Z,100779.09
2023-02-11T20:26:13.724Z,100790.75
2023-02-11T20:28:16.632Z,100792.66
2023-02-11T20:30:19.306Z,100803.63
2023-02-11T20:32:21.889Z,100838.06
2023-02-11T20:34:25.639Z,100811.28
2023-02-11T20:36:32.496Z,100769.53
2023-02-11T20:38:35.425Z,100808.75
2023-02-11T20:40:38.772Z,100782.41
2023-02-11T20:42:41.537Z,100833.94
2023-02-11T20:44:44.529Z,100839.94
2023-02-11T20:46:47.624Z,100807.50
2023-02-11T20:48:52.312Z,100811.38
2023-02-11T20:50:55.037Z,100769.78
2023-02-11T20:52:57.749Z,100819.06
2023-02-11T20:55:01.914Z,100790.03
2023-02-11T20:57:04.673Z,100808.25
2023-02-11T20:59:08.088Z,100779.25
2023-02-11T21:01:31.963Z,100820.97
2023-02-11T21:03:34.616Z,100824.53
2023-02-11T21:05:37.120Z,100828.69
2023-02-11T21:07:40.198Z,100842.09
2023-02-11T21:09:42.746Z,100824.53
2023-02-11T21:11:45.708Z,100808.66
2023-02-11T21:13:49.016Z,100825.34
2023-02-11T21:15:56.846Z,100788.78
2023-02-11T21:18:00.335Z,100841.50
2023-02-11T21:20:02.799Z,100824.63
2023-02-11T21:22:05.445Z,100845.03
2023-02-11T21:24:09.917Z,100815.63
2023-02-11T21:26:13.021Z,100848.16
2023-02-11T21:28:15.765Z,100859.38
2023-02-11T21:30:18.888Z,100885.72
2023-02-11T21:32:21.209Z,100822.38
2023-02-11T21:34:23.935Z,100870.16
2023-02-11T21:36:27.897Z,100851.16
2023-02-11T21:38:31.414Z,100888.53
2023-02-11T21:40:33.660Z,100863.44
2023-02-11T21:42:36.560Z,100838.44
2023-02-11T21:44:39.377Z,100876.97
2023-02-11T21:46:42.683Z,100882.19
2023-02-11T21:48:45.773Z,100899.06
2023-02-11T21:50:48.195Z,100889.88
2023-02-11T21:52:50.981Z,100925.53
2023-02-11T21:54:53.461Z,100931.50
2023-02-11T21:56:56.242Z,100894.66
2023-02-11T21:58:59.652Z,100907.06
2023-02-11T22:01:02.162Z,100917.91
2023-02-11T22:03:05.055Z,100887.19
2023-02-11T22:05:07.477Z,100889.63
2023-02-11T22:07:09.996Z,100877.13
2023-02-11T22:09:12.702Z,100927.50
2023-02-11T22:11:15.554Z,100868.31
2023-02-11T22:13:18.078Z,100873.66
2023-02-11T22:15:20.894Z,100897.81
2023-02-11T22:17:24.109Z,100910.34
2023-02-11T22:19:26.759Z,100867.06
2023-02-11T22:21:29.176Z,100849.66
2023-02-11T22:23:32.119Z,100950.06
2023-02-11T22:25:37.046Z,100924.28
2023-02-11T22:27:39.934Z,100925.28
2023-02-11T22:29:43.387Z,100927.78
2023-02-11T22:31:46.180Z,100908.72
2023-02-11T22:33:50.041Z,100899.34
2023-02-11T22:36:00.499Z,100922.88
2023-02-11T22:38:03.074Z,100928.84
2023-02-11T22:40:06.521Z,100929.00
2023-02-11T22:42:09.443Z,100899.19
2023-02-11T22:44:13.014Z,100901.56
2023-02-11T22:46:18.574Z,100957.72
2023-02-11T22:48:23.110Z,100941.72
2023-02-11T22:50:26.436Z,100973.53
2023-02-11T22:52:29.145Z,100909.22
2023-02-11T22:54:31.703Z,100934.34
2023-02-11T22:56:35.483Z,100960.38
2023-02-11T22:58:38.115Z,100946.78
2023-02-11T23:00:42.087Z,100913.50
2023-02-11T23:02:44.687Z,100935.19
2023-02-11T23:04:49.852Z,100969.56
2023-02-11T23:06:52.776Z,100939.53
2023-02-11T23:08:55.749Z,100950.34
2023-02-11T23:11:23.364Z,100973.75
2023-02-11T23:13:26.135Z,100902.00
2023-02-11T23:15:29.157Z,100891.25
2023-02-11T23:17:32.015Z,100969.53
2023-02-11T23:19:34.378Z,100942.22
2023-02-11T23:21:39.767Z,100990.66
2023-02-11T23:23:43.434Z,100942.22
2023-02-11T23:25:47.940Z,100979.50
2023-02-11T23:27:50.597Z,100947.06
2023-02-11T23:29:56.876Z,100969.75
2023-02-11T23:31:59.404Z,100949.84
2023-02-11T23:34:08.454Z,100946.63
2023-02-11T23:36:11.650Z,100966.72
2023-02-11T23:38:13.884Z,100950.13
2023-02-11T23:40:16.417Z,100973.31
2023-02-11T23:42:18.872Z,100912.47
2023-02-11T23:44:21.973Z,101007.59
2023-02-11T23:46:26.171Z,100961.72
2023-02-11T23:48:29.056Z,100957.25
2023-02-11T23:50:33.083Z,100943.16
2023-02-11T23:52:35.679Z,101002.47
2023-02-11T23:54:38.030Z,101007.66
2023-02-11T23:56:42.664Z,100940.66
2023-02-11T23:58:47.195Z,100970.78
